HOURLY OBS INDEX

060

Manning

PORT MACQUARIE AIRPORT AWS

Site: 060139
Alt: 4.2m
5km E of PORT MACQUARIE


  Time     Wind        Temp  DP   Baro     Rain since   Rain past  Vis(m), Cloud(base in m), Weather
  local        km/h                         9am  last   hr   10m    
Tue 20:00  WSW 26/ 39  12.2  7.3  1020.1    0.0   0.0   0.0   0.0   10000 
Tue 20:30  WSW 24/ 35  12.4  7.7  1020.5    0.0   0.0   0.0   0.0   10000 
Tue 21:00  WSW 24/ 33  12.4  8.5  1020.6    0.0   0.0   0.0   0.0   10000|BR2220 BR2850 
Tue 21:30  WSW 22/ 32  12.5  8.8  1020.7    0.0   0.0   0.0   0.0   10000|SC2220 SC3000 
Tue 22:00  WSW 17/ 22  11.8  8.8  1020.8    0.0   0.0   0.0   0.0   10000|SC1890 SC2370 SC2730 
Tue 22:30  WSW 20/ 26  11.9  8.9  1021.0    0.0   0.0   0.0   0.0   10000|SC2370 
Tue 23:00  WSW 20/ 32  12.1  9.1  1021.1    0.0   0.0   0.0   0.0   10000|SC1380 SC1710 SC2190 
Tue 23:30  WSW 20/ 28  12.3  9.1  1021.3    0.0   0.0   0.0   0.0   10000|SC1080 BR1800 BR2250 
Wed 00:00   SW 20/ 28  11.8 10.0  1021.4    0.4   0.4   0.4   0.0   10000|SC1710 BR1980 BR2250 
Wed 00:30   SW 19/ 26  11.7 10.3  1021.2    0.6   0.2   0.6   0.0   10000|SC 480 SC 870 BR1470 
Wed 01:00  WSW 17/ 24  11.9 10.3  1021.3    0.8   0.2   0.4   0.0   10000|SC 780 BR1110 BR1320 
Wed 01:00  WSW 17/ 24  11.9 10.3  1021.3    0.8   0.0  ----   0.0   10000|SC 780 BR1110 BR1320 

TAREE AIRPORT AWS

Site: 060141
Alt: 8.0m
6km ENE of TAREE


  Time     Wind        Temp  DP   Baro     Rain since   Rain past  Vis(m), Cloud(base in m), Weather
  local        km/h                         9am  last   hr   10m    
Tue 20:00  WSW 17/ 26  11.9  8.4  1021.4    1.6   0.0   0.0   0.0   10000|SC1800 SC2730 BR3600 
Tue 20:30    W 15/ 20  11.6  9.0  1021.6    1.8   0.2   0.2   0.2   10000|SC1320 SC1590 BR1890 
Tue 21:00    W 17/ 26  11.5  9.1  1021.8    1.8   0.0   0.2   0.0   10000|SC 960 SC1560 BR2160 
Tue 21:30  WSW 19/ 30  11.4  8.8  1021.8    1.8   0.0   0.0   0.0   10000|SC1050 SC1260 SC1770 
Tue 22:00    W 19/ 28  11.0  9.6  1022.0    1.8   0.0   0.0   0.0   10000|SC1050 SC1830 
Tue 22:30  WSW 17/ 24  11.0  9.3  1022.0    1.8   0.0   0.0   0.0   10000|SC1920 
Tue 23:00  WSW 19/ 26  11.2  9.8  1022.3    2.2   0.4   0.4   0.4   10000|SC 990 SC1560 BR2010 
Tue 23:30  WSW 15/ 20  11.0  9.9  1022.3    2.4   0.2   0.6   0.0   10000|SC 870 BR1110 BR2100 
Tue 23:57  WSW 17/ 28  11.0 10.1  1022.3    3.6   1.2  ----   1.0    5000|SC 810 BR1080 BR1320 
Wed 00:00  WSW 19/ 28  11.0 10.1  1022.2    3.6   0.0   1.4   0.8    6000|SC 450 SC 810 BR1080 
Wed 00:08  WSW 17/ 26  10.9 10.0  1022.3    3.8   0.2  ----   0.2   10000|SC 450 SC 810 SC1080 
Wed 00:30    W 13/ 17  10.9 10.1  1022.2    4.0   0.2   1.6   0.0   10000|SC 990 SC1440 BR1830 
Wed 01:00    W 17/ 24  10.9 10.1  1022.3    5.4   1.4   1.8   0.6    8000|SC 630 SC 930 SC1410 
Wed 01:00    W 17/ 24  10.9 10.1  1022.3    5.4   0.0  ----   0.6    8000|SC 630 SC 930 SC1410